Time;durP1;ratioP1;P1;durP2;ratioP2;P2;SDS_P1;SDS_P2;PMS_P1;PMS_P2;Temp;Humidity;BMP_temperature;BMP_pressure;BME280_temperature;BME280_humidity;BME280_pressure;Samples;Min_cycle;Max_cycle;Signal;HPM_P1;HPM_P2
2021/10/15 00:01:32;;;;;;;8.10;4.00;;;;;;;14.37;59.93;100492.94;5014909;28;20049;-65
2021/10/15 00:03:59;;;;;;;5.10;3.38;;;;;;;14.38;60.02;100483.38;5015268;28;20424;-65
2021/10/15 00:06:27;;;;;;;6.63;3.53;;;;;;;14.34;59.52;100495.56;5014870;28;20049;-65
2021/10/15 00:08:54;;;;;;;6.35;3.40;;;;;;;14.24;59.90;100488.41;5015289;28;20412;-65
2021/10/15 00:11:22;;;;;;;7.10;3.30;;;;;;;14.20;60.43;100485.44;5015286;28;20052;-65
2021/10/15 00:13:50;;;;;;;9.50;3.78;;;;;;;14.18;60.57;100487.78;5015740;28;20389;-65
2021/10/15 00:16:17;;;;;;;7.13;3.55;;;;;;;14.33;60.29;100479.94;5015735;28;20061;-65
2021/10/15 00:18:44;;;;;;;5.00;3.40;;;;;;;14.35;59.78;100483.22;5015195;28;20054;-65
2021/10/15 00:21:12;;;;;;;7.25;3.72;;;;;;;14.25;59.91;100486.41;5015120;28;20054;-65
2021/10/15 00:23:39;;;;;;;7.30;3.80;;;;;;;14.23;59.75;100488.72;5015802;28;20049;-65
2021/10/15 00:26:06;;;;;;;6.38;3.65;;;;;;;14.32;59.70;100490.34;5015150;28;20408;-65
2021/10/15 00:28:37;;;;;;;7.25;3.33;;;;;;;14.31;59.54;100485.06;5014405;28;20062;-65
2021/10/15 00:31:05;;;;;;;4.40;3.28;;;;;;;14.31;59.42;100476.66;5014961;28;20057;-65
2021/10/15 00:33:32;;;;;;;9.85;3.55;;;;;;;14.24;59.47;100471.59;5014540;28;20054;-65
2021/10/15 00:35:59;;;;;;;9.05;3.13;;;;;;;14.25;59.85;100472.41;5014487;28;20053;-65
2021/10/15 00:38:27;;;;;;;8.52;3.38;;;;;;;14.26;59.44;100469.28;5014020;28;20058;-65
2021/10/15 00:40:54;;;;;;;7.20;3.35;;;;;;;14.15;59.82;100457.66;5001947;28;20054;-65
2021/10/15 00:43:21;;;;;;;7.00;3.40;;;;;;;14.16;59.80;100464.88;4994782;28;20066;-65
2021/10/15 00:45:50;;;;;;;7.53;3.30;;;;;;;14.13;59.42;100448.75;4993978;28;20050;-65
2021/10/15 00:48:17;;;;;;;6.15;3.50;;;;;;;14.09;59.70;100453.41;4994522;28;20054;-65
2021/10/15 00:50:45;;;;;;;5.07;2.67;;;;;;;14.12;59.28;100443.47;4994580;28;20053;-65
2021/10/15 00:53:13;;;;;;;5.20;3.22;;;;;;;14.02;59.27;100444.69;4995074;28;20058;-65
2021/10/15 00:55:43;;;;;;;6.65;3.28;;;;;;;14.06;59.21;100436.44;5000921;28;20460;-65
2021/10/15 00:58:11;;;;;;;7.78;3.10;;;;;;;13.96;59.02;100426.44;5014480;28;20053;-65
2021/10/15 01:00:38;;;;;;;7.95;3.03;;;;;;;13.93;59.44;100427.94;5014070;28;20060;-65
2021/10/15 01:03:08;;;;;;;4.55;2.97;;;;;;;13.99;58.73;100423.78;5014094;28;20101;-65
2021/10/15 01:05:36;;;;;;;6.15;4.00;;;;;;;13.94;58.94;100421.19;5013998;28;20117;-65
2021/10/15 01:08:04;;;;;;;7.95;3.22;;;;;;;13.99;58.30;100423.78;5013828;28;20064;-65
2021/10/15 01:10:31;;;;;;;7.63;3.28;;;;;;;13.88;58.79;100407.72;5013884;28;20058;-65
2021/10/15 01:12:59;;;;;;;6.65;3.10;;;;;;;13.94;58.33;100411.94;5014026;28;20476;-65
2021/10/15 01:15:26;;;;;;;4.95;2.92;;;;;;;13.92;58.24;100408.66;5013523;28;20464;-65
2021/10/15 01:17:53;;;;;;;6.15;2.90;;;;;;;13.84;57.91;100406.75;5023627;28;20057;-65
2021/10/15 01:20:22;;;;;;;8.82;3.25;;;;;;;13.84;57.84;100404.78;5018081;28;20054;-65
2021/10/15 01:22:49;;;;;;;5.65;3.03;;;;;;;13.91;57.99;100395.84;5013745;28;20057;-65
2021/10/15 01:25:17;;;;;;;7.47;3.47;;;;;;;13.91;57.99;100396.66;5025101;28;20499;-65
2021/10/15 01:27:44;;;;;;;5.30;3.40;;;;;;;13.82;57.71;100398.69;5033244;28;20053;-65
2021/10/15 01:30:14;;;;;;;7.57;3.30;;;;;;;13.91;57.78;100391.06;5024045;28;20046;-65
2021/10/15 01:32:41;;;;;;;6.78;3.20;;;;;;;13.84;57.93;100389.94;5013559;28;20060;-65
2021/10/15 01:35:09;;;;;;;5.75;3.25;;;;;;;13.75;58.11;100390.84;5013427;28;20075;-65
2021/10/15 01:37:38;;;;;;;6.97;2.80;;;;;;;13.78;57.52;100384.53;5012904;28;20061;-65
2021/10/15 01:40:06;;;;;;;6.85;3.10;;;;;;;13.54;58.03;100389.94;5013608;28;20060;-65
2021/10/15 01:45:19;;;;;;;5.43;2.90;;;;;;;13.65;58.09;100382.81;5018956;28;20073;-65
2021/10/15 01:47:46;;;;;;;6.07;3.22;;;;;;;13.56;58.34;100371.66;5013009;28;20054;-65
2021/10/15 01:50:13;;;;;;;4.88;3.10;;;;;;;13.57;58.50;100364.91;5012870;28;20057;-65
2021/10/15 01:52:42;;;;;;;4.32;2.90;;;;;;;13.60;58.12;100369.00;5013009;28;20065;-65
2021/10/15 01:55:10;;;;;;;8.48;3.50;;;;;;;13.61;58.32;100365.06;5013362;28;20053;-65
2021/10/15 01:57:38;;;;;;;7.47;3.47;;;;;;;13.62;57.96;100371.47;5012792;28;20050;-65
2021/10/15 02:00:08;;;;;;;8.20;3.28;;;;;;;13.59;58.44;100367.38;5012887;28;20491;-65
2021/10/15 02:02:35;;;;;;;6.78;3.20;;;;;;;13.59;58.17;100367.38;5012848;28;20060;-65
2021/10/15 02:05:02;;;;;;;7.57;3.38;;;;;;;13.56;58.58;100359.63;5013174;28;20049;-65
2021/10/15 02:07:29;;;;;;;6.25;3.05;;;;;;;13.54;58.51;100354.41;5012697;28;20049;-65
2021/10/15 02:09:58;;;;;;;7.05;3.08;;;;;;;13.58;58.16;100348.94;5013241;28;20062;-65
2021/10/15 02:12:26;;;;;;;4.40;3.10;;;;;;;13.52;58.46;100358.66;5013445;28;20061;-66
2021/10/15 02:14:53;;;;;;;8.50;3.40;;;;;;;13.54;58.48;100343.22;5012884;28;20050;-65
2021/10/15 02:17:20;;;;;;;7.03;3.00;;;;;;;13.59;57.94;100356.19;5013494;28;20057;-65
2021/10/15 02:19:48;;;;;;;5.13;2.88;;;;;;;13.51;58.28;100348.66;5013003;28;20049;-65
2021/10/15 02:22:15;;;;;;;6.57;3.45;;;;;;;13.49;58.51;100346.19;5013210;28;20064;-65
2021/10/15 02:24:42;;;;;;;5.35;3.38;;;;;;;13.54;58.38;100348.81;5024710;28;20053;-65
2021/10/15 02:27:11;;;;;;;5.88;3.38;;;;;;;13.48;58.66;100338.13;5016117;28;20412;-65
2021/10/15 02:29:39;;;;;;;5.93;3.30;;;;;;;13.42;59.00;100337.50;5012624;28;20145;-65
2021/10/15 02:32:07;;;;;;;5.97;3.88;;;;;;;13.38;58.95;100344.94;5012757;28;20408;-65
2021/10/15 02:34:34;;;;;;;6.78;3.20;;;;;;;13.36;58.99;100334.06;5012818;28;20046;-65
2021/10/15 02:37:01;;;;;;;5.50;3.20;;;;;;;13.30;59.31;100334.59;5012908;28;20050;-65
2021/10/15 02:39:29;;;;;;;6.40;3.22;;;;;;;13.19;59.56;100332.16;5012477;28;20062;-65
2021/10/15 02:41:57;;;;;;;10.77;3.45;;;;;;;13.13;59.55;100327.91;5012594;28;20388;-65
2021/10/15 02:44:26;;;;;;;6.15;3.38;;;;;;;13.05;60.13;100333.53;5012733;28;20050;-65
2021/10/15 02:46:53;;;;;;;10.13;4.05;;;;;;;12.91;60.38;100319.75;5012909;28;20054;-65
2021/10/15 02:49:21;;;;;;;7.57;3.35;;;;;;;12.86;60.74;100312.38;5012683;28;20507;-65
2021/10/15 02:51:48;;;;;;;8.77;3.78;;;;;;;12.82;61.12;100305.81;5012362;28;20057;-65
2021/10/15 02:54:15;;;;;;;6.88;3.30;;;;;;;12.73;61.26;100307.81;5012797;28;20058;-65
2021/10/15 02:56:43;;;;;;;7.82;3.47;;;;;;;12.70;61.60;100309.28;4993028;28;20055;-66
2021/10/15 02:59:13;;;;;;;6.32;3.35;;;;;;;12.61;62.09;100305.69;4992901;28;20405;-65
2021/10/15 03:01:42;;;;;;;10.52;4.13;;;;;;;12.42;62.70;100306.06;4992786;28;20074;-65
2021/10/15 03:04:09;;;;;;;7.00;4.17;;;;;;;12.44;62.54;100295.38;4992998;28;20054;-65
2021/10/15 03:06:37;;;;;;;8.88;3.67;;;;;;;12.43;62.55;100293.75;4992759;28;20054;-65
2021/10/15 03:09:05;;;;;;;7.90;4.03;;;;;;;12.41;62.52;100296.06;4995192;28;20055;-65
2021/10/15 03:11:33;;;;;;;7.50;4.25;;;;;;;12.34;63.27;100298.50;5015907;28;20061;-65
2021/10/15 03:14:00;;;;;;;8.30;4.55;;;;;;;12.30;63.39;100284.38;5016226;28;20053;-65
2021/10/15 03:16:27;;;;;;;11.15;4.53;;;;;;;12.17;63.80;100285.38;5015597;28;20050;-65
2021/10/15 03:18:56;;;;;;;9.77;5.10;;;;;;;12.18;63.60;100282.28;5016255;28;20432;-65
2021/10/15 03:21:23;;;;;;;9.20;4.70;;;;;;;12.25;63.39;100280.94;5016175;28;20061;-65
2021/10/15 03:23:51;;;;;;;8.57;4.00;;;;;;;12.18;63.70;100281.47;5016552;28;20053;-66
2021/10/15 03:26:18;;;;;;;6.65;3.88;;;;;;;12.28;63.40;100283.06;5016394;28;20061;-67
2021/10/15 03:28:45;;;;;;;6.82;3.90;;;;;;;12.22;63.61;100279.66;5015519;28;20077;-67
2021/10/15 03:31:13;;;;;;;7.40;4.20;;;;;;;12.21;63.64;100275.19;5015797;28;20183;-67
2021/10/15 03:33:40;;;;;;;8.13;4.30;;;;;;;12.23;64.05;100270.09;5015563;28;20049;-67
2021/10/15 03:36:09;;;;;;;9.18;4.35;;;;;;;12.31;63.73;100280.44;5015336;28;20054;-66
2021/10/15 03:38:36;;;;;;;8.52;4.10;;;;;;;12.34;63.48;100267.78;5015795;28;20467;-67
2021/10/15 03:41:03;;;;;;;8.93;4.53;;;;;;;12.38;63.36;100266.78;5016154;28;20058;-66
2021/10/15 03:43:30;;;;;;;6.55;4.70;;;;;;;12.35;63.20;100266.66;5015571;28;20054;-67
2021/10/15 03:45:58;;;;;;;8.57;4.57;;;;;;;12.36;63.20;100254.31;5015297;28;20069;-67
2021/10/15 03:48:25;;;;;;;7.50;4.30;;;;;;;12.37;63.04;100256.78;5015875;28;20412;-67
2021/10/15 03:50:53;;;;;;;7.85;4.68;;;;;;;12.35;63.39;100261.06;5015469;28;20069;-67
2021/10/15 03:53:21;;;;;;;6.80;4.32;;;;;;;12.46;63.39;100264.31;5009927;28;20050;-66
2021/10/15 03:55:49;;;;;;;8.20;4.47;;;;;;;12.42;63.19;100266.94;4995374;28;20062;-67
2021/10/15 03:58:16;;;;;;;8.70;4.50;;;;;;;12.34;63.60;100251.03;4995863;28;20050;-68
2021/10/15 04:00:43;;;;;;;6.72;4.65;;;;;;;12.33;63.51;100260.56;4995576;28;20054;-67
2021/10/15 04:03:11;;;;;;;10.65;5.25;;;;;;;12.41;63.06;100254.16;4995459;28;20050;-65
2021/10/15 04:05:38;;;;;;;9.98;5.07;;;;;;;12.48;62.96;100246.06;4995446;28;20054;-67
2021/10/15 04:08:05;;;;;;;8.65;4.40;;;;;;;12.48;63.01;100248.06;5002060;28;20053;-67
2021/10/15 04:10:37;;;;;;;8.32;4.65;;;;;;;12.35;63.33;100241.50;5015320;28;20476;-67
2021/10/15 04:13:05;;;;;;;7.72;4.40;;;;;;;12.39;63.19;100250.88;5015339;28;20060;-67
2021/10/15 04:15:32;;;;;;;8.10;4.85;;;;;;;12.48;62.96;100240.47;5014712;28;20450;-67
2021/10/15 04:17:59;;;;;;;7.72;4.90;;;;;;;12.50;62.86;100238.19;5015056;28;20420;-67
2021/10/15 04:20:27;;;;;;;7.30;4.32;;;;;;;12.59;62.27;100241.75;5014818;28;20054;-67
2021/10/15 04:22:54;;;;;;;9.77;4.57;;;;;;;12.62;62.50;100228.25;5015576;28;20054;-67
2021/10/15 04:25:21;;;;;;;7.40;4.18;;;;;;;12.56;62.82;100230.44;5015067;28;20498;-67
2021/10/15 04:27:50;;;;;;;7.93;4.38;;;;;;;12.53;62.86;100234.69;5014587;28;20050;-67
2021/10/15 04:30:17;;;;;;;8.80;4.60;;;;;;;12.51;62.73;100217.44;5014294;28;20054;-67
2021/10/15 04:32:45;;;;;;;7.53;4.22;;;;;;;12.58;62.44;100228.94;5014251;28;20054;-67
2021/10/15 04:35:12;;;;;;;6.53;3.80;;;;;;;12.70;62.46;100213.44;5014374;28;20050;-67
2021/10/15 04:37:40;;;;;;;8.98;4.60;;;;;;;12.72;62.57;100225.09;5014227;28;20408;-67
2021/10/15 04:40:09;;;;;;;7.85;4.50;;;;;;;12.73;62.03;100218.38;5014654;28;20073;-67
2021/10/15 04:42:38;;;;;;;8.30;4.33;;;;;;;12.72;62.21;100211.13;5014739;28;20476;-67
2021/10/15 04:45:07;;;;;;;7.38;4.20;;;;;;;12.68;62.39;100210.16;5014226;28;20467;-67
2021/10/15 04:47:35;;;;;;;8.38;5.00;;;;;;;12.73;62.07;100202.44;5013800;28;20134;-67
2021/10/15 04:50:03;;;;;;;7.60;4.35;;;;;;;12.65;62.84;100213.66;5013572;28;20057;-67
2021/10/15 04:52:30;;;;;;;7.22;4.70;;;;;;;12.73;62.53;100210.00;5014629;28;20057;-67
2021/10/15 04:54:58;;;;;;;9.07;5.13;;;;;;;12.68;63.06;100199.84;5017534;28;20431;-67
2021/10/15 04:57:25;;;;;;;7.72;5.15;;;;;;;12.75;63.00;100205.72;5014536;28;20484;-66
2021/10/15 04:59:52;;;;;;;7.55;4.57;;;;;;;12.77;63.22;100202.59;5014002;28;20076;-67
2021/10/15 05:02:21;;;;;;;8.77;4.75;;;;;;;12.76;63.23;100196.16;5014122;28;20057;-67
2021/10/15 05:04:51;;;;;;;6.88;4.57;;;;;;;12.74;63.48;100201.25;5013973;28;20052;-67
2021/10/15 05:07:19;;;;;;;8.65;4.85;;;;;;;12.71;63.17;100190.75;5014244;28;20412;-67
2021/10/15 05:09:46;;;;;;;9.27;4.57;;;;;;;12.67;63.53;100192.59;5013771;28;20527;-67
2021/10/15 05:12:17;;;;;;;9.23;4.40;;;;;;;12.73;63.86;100191.25;5018318;28;20050;-67
2021/10/15 05:14:45;;;;;;;7.72;4.80;;;;;;;12.75;63.61;100185.31;5030049;28;20061;-67
2021/10/15 05:17:13;;;;;;;7.22;4.93;;;;;;;12.75;63.88;100186.13;5032542;28;20064;-67
2021/10/15 05:19:42;;;;;;;8.77;4.93;;;;;;;12.73;63.77;100185.66;5033512;28;20053;-67
2021/10/15 05:22:10;;;;;;;10.65;5.38;;;;;;;12.80;63.84;100190.72;5016218;28;20058;-67
2021/10/15 05:24:37;;;;;;;12.95;5.15;;;;;;;12.82;63.79;100188.41;5013091;28;20050;-67
2021/10/15 05:27:05;;;;;;;7.53;4.97;;;;;;;12.74;63.94;100186.47;5020001;28;20068;-67
2021/10/15 05:29:32;;;;;;;9.23;4.78;;;;;;;12.77;64.40;100177.44;5012935;28;20046;-67
2021/10/15 05:32:00;;;;;;;9.38;5.45;;;;;;;12.84;64.23;100186.09;5015474;28;20152;-67
2021/10/15 05:34:27;;;;;;;9.18;5.10;;;;;;;12.86;64.07;100186.56;5013569;28;20053;-67
2021/10/15 05:36:56;;;;;;;7.22;4.50;;;;;;;12.78;64.63;100184.63;5013372;28;20057;-67
2021/10/15 05:39:23;;;;;;;8.38;5.10;;;;;;;12.88;64.10;100184.25;5014164;28;20053;-67
2021/10/15 05:41:50;;;;;;;7.60;4.93;;;;;;;12.88;64.12;100183.44;5013541;28;20061;-67
2021/10/15 05:44:18;;;;;;;7.43;5.35;;;;;;;12.78;64.81;100177.06;5013393;28;20053;-67
2021/10/15 05:46:45;;;;;;;8.68;5.20;;;;;;;12.83;64.59;100178.88;5013152;28;20057;-67
2021/10/15 05:49:12;;;;;;;9.52;5.07;;;;;;;12.82;64.49;100188.41;5013284;28;20050;-67
2021/10/15 05:51:42;;;;;;;10.60;5.53;;;;;;;12.84;64.49;100196.47;5012747;28;20054;-67
2021/10/15 05:54:15;;;;;;;6.72;4.93;;;;;;;12.87;64.37;100184.59;5013386;28;20488;-67
2021/10/15 05:56:48;;;;;;;9.43;5.22;;;;;;;12.85;64.80;100181.31;5013218;28;20058;-67
2021/10/15 05:59:14;;;;;;;7.38;4.78;;;;;;;12.87;64.60;100184.59;5013063;28;20057;-67
2021/10/15 06:01:41;;;;;;;10.00;4.95;;;;;;;12.84;64.90;100185.28;5012995;28;20054;-67
2021/10/15 06:15:14;;;;;;;8.65;6.07;;;;;;;12.89;64.96;100163.56;5027368;28;20121;-67
2021/10/15 06:17:45;;;;;;;12.48;6.10;;;;;;;12.91;65.33;100166.81;5009273;28;20061;-67
2021/10/15 06:20:13;;;;;;;10.43;5.88;;;;;;;13.01;65.09;100162.81;5014795;28;20053;-67
2021/10/15 06:22:40;;;;;;;10.55;6.13;;;;;;;13.05;64.80;100157.38;5021251;28;20053;-67
2021/10/15 06:25:09;;;;;;;7.88;5.38;;;;;;;13.14;64.54;100167.31;5013069;28;20065;-67
2021/10/15 06:27:37;;;;;;;11.20;6.20;;;;;;;13.23;64.05;100170.09;5012698;28;20054;-67
2021/10/15 06:30:06;;;;;;;8.77;5.20;;;;;;;13.23;64.26;100167.28;5016331;28;20056;-67
2021/10/15 06:32:34;;;;;;;11.93;5.07;;;;;;;13.24;64.34;100165.28;5021661;28;20060;-67
2021/10/15 06:35:01;;;;;;;8.50;5.40;;;;;;;13.33;63.85;100163.28;5012445;28;20403;-67
2021/10/15 06:37:28;;;;;;;9.45;5.82;;;;;;;13.40;64.06;100160.78;5012474;28;20061;-67
2021/10/15 06:39:56;;;;;;;7.53;4.88;;;;;;;13.41;64.03;100159.59;5012507;28;20046;-67
2021/10/15 06:42:24;;;;;;;10.32;5.65;;;;;;;13.42;64.18;100161.25;5012181;28;20590;-67
2021/10/15 06:44:52;;;;;;;9.03;6.30;;;;;;;13.42;63.87;100152.84;5013849;28;20511;-67
2021/10/15 06:47:20;;;;;;;9.07;5.68;;;;;;;13.51;63.93;100155.56;5018097;28;20050;-67
2021/10/15 06:49:47;;;;;;;9.68;5.32;;;;;;;13.53;64.07;100156.06;5019587;28;20057;-67
2021/10/15 06:52:14;;;;;;;9.70;4.85;;;;;;;13.64;63.67;100164.84;5015651;28;20053;-67
2021/10/15 06:54:42;;;;;;;10.52;5.22;;;;;;;13.68;63.13;100163.81;5016453;28;20500;-67
2021/10/15 06:57:09;;;;;;;9.63;5.15;;;;;;;13.73;63.10;100163.63;5028028;28;20416;-67
2021/10/15 06:59:38;;;;;;;9.30;5.35;;;;;;;13.71;62.65;100156.69;5015731;28;20061;-67
2021/10/15 07:02:05;;;;;;;6.75;4.93;;;;;;;13.73;62.72;100159.97;5029555;28;20443;-67
2021/10/15 07:04:32;;;;;;;7.57;4.68;;;;;;;13.84;62.41;100163.16;5017718;28;20064;-67
2021/10/15 07:07:00;;;;;;;7.15;4.65;;;;;;;13.60;63.33;100162.72;5016715;28;20053;-62
2021/10/15 07:09:28;;;;;;;11.57;5.03;;;;;;;13.57;63.85;100168.19;5009730;28;20325;-62
2021/10/15 07:11:55;;;;;;;7.20;4.53;;;;;;;13.84;63.12;100154.75;5015271;28;20060;-62
2021/10/15 07:14:26;;;;;;;7.82;4.50;;;;;;;13.89;62.68;100157.38;5021973;28;20061;-61
2021/10/15 07:16:55;;;;;;;9.68;4.60;;;;;;;13.77;62.86;100158.97;5005046;28;20054;-62
2021/10/15 07:19:23;;;;;;;9.25;4.72;;;;;;;13.80;62.67;100161.06;5017945;28;20049;-61
2021/10/15 07:21:50;;;;;;;8.15;4.78;;;;;;;13.65;63.29;100178.50;5014182;28;20065;-62
2021/10/15 07:24:18;;;;;;;9.23;4.90;;;;;;;13.61;63.80;100152.38;5016380;28;20057;-62
2021/10/15 07:26:45;;;;;;;7.80;4.85;;;;;;;13.75;63.59;100152.91;5027089;28;20054;-62
2021/10/15 07:29:12;;;;;;;7.80;4.93;;;;;;;13.78;63.20;100166.19;5020398;28;20050;-62
2021/10/15 07:31:40;;;;;;;8.15;4.70;;;;;;;13.73;63.43;100166.41;5025833;28;20101;-62
2021/10/15 07:34:08;;;;;;;12.80;5.60;;;;;;;13.86;63.05;100164.47;5016664;28;20060;-62
2021/10/15 07:36:37;;;;;;;9.57;5.47;;;;;;;13.80;63.17;100168.66;5015087;28;20057;-62
2021/10/15 07:39:05;;;;;;;11.02;4.95;;;;;;;13.73;63.45;100171.19;5016840;28;20049;-62
2021/10/15 07:41:33;;;;;;;8.63;4.57;;;;;;;13.69;63.65;100175.81;5015888;28;20121;-62
2021/10/15 07:44:00;;;;;;;6.47;3.90;;;;;;;13.72;63.58;100186.34;5017718;28;20049;-62
2021/10/15 07:46:28;;;;;;;9.05;4.90;;;;;;;13.65;63.89;100186.06;5029305;28;20053;-62
2021/10/15 07:48:56;;;;;;;10.27;5.20;;;;;;;13.74;64.03;100179.25;5021480;28;20507;-61
2021/10/15 07:51:24;;;;;;;9.23;5.57;;;;;;;13.74;64.10;100181.22;5033971;28;20062;-62
2021/10/15 07:53:52;;;;;;;12.07;5.80;;;;;;;13.84;63.77;100186.41;5030930;28;20061;-62
2021/10/15 07:56:19;;;;;;;8.82;5.07;;;;;;;13.88;63.72;100184.56;5016110;28;20492;-62
2021/10/15 07:58:47;;;;;;;9.70;5.13;;;;;;;13.67;64.00;100198.56;5023402;28;20404;-61
2021/10/15 08:01:14;;;;;;;8.80;5.03;;;;;;;13.94;63.47;100185.97;5031622;28;20053;-62
2021/10/15 08:03:41;;;;;;;7.43;4.63;;;;;;;13.91;63.56;100186.66;5023920;28;20058;-61
2021/10/15 08:06:09;;;;;;;8.13;5.18;;;;;;;13.81;63.87;100187.06;5021070;28;20484;-61
2021/10/15 08:08:38;;;;;;;9.40;6.28;;;;;;;13.77;64.20;100206.56;5018023;28;20052;-61
2021/10/15 08:11:05;;;;;;;8.10;5.38;;;;;;;13.84;63.94;100194.81;5030772;28;20061;-62
2021/10/15 08:13:32;;;;;;;7.18;4.80;;;;;;;13.87;64.08;100190.50;5018941;28;20042;-62
2021/10/15 08:16:00;;;;;;;7.55;4.80;;;;;;;13.85;64.35;100190.81;5011463;28;20065;-61
2021/10/15 08:18:27;;;;;;;10.48;5.32;;;;;;;13.69;64.54;100204.66;5018682;28;20057;-62
2021/10/15 08:20:57;;;;;;;9.30;5.35;;;;;;;13.86;64.30;100192.47;5016215;28;20060;-62
2021/10/15 08:23:25;;;;;;;8.88;5.00;;;;;;;13.86;64.48;100188.84;5028708;28;20057;-62
2021/10/15 08:25:55;;;;;;;10.50;5.40;;;;;;;14.06;63.66;100204.78;5020826;28;20514;-62
2021/10/15 08:28:23;;;;;;;9.02;4.75;;;;;;;14.05;63.90;100194.78;5020068;28;20073;-61
2021/10/15 08:30:51;;;;;;;9.93;5.60;;;;;;;13.97;63.53;100188.06;5013416;28;20049;-62
2021/10/15 08:33:20;;;;;;;8.65;5.20;;;;;;;13.98;63.78;100189.72;5023256;28;20419;-62
2021/10/15 08:35:48;;;;;;;8.32;4.57;;;;;;;14.09;63.37;100183.66;5031575;28;20412;-62
2021/10/15 08:38:15;;;;;;;9.75;4.47;;;;;;;14.05;62.94;100191.97;5022804;28;20506;-61
2021/10/15 08:40:42;;;;;;;7.65;5.53;;;;;;;14.02;63.53;100195.44;5013398;28;20396;-61
2021/10/15 08:43:11;;;;;;;11.48;5.80;;;;;;;14.01;63.98;100202.22;5015620;28;20046;-62
2021/10/15 08:45:38;;;;;;;13.50;5.10;;;;;;;14.10;63.50;100202.13;5029477;28;20491;-62
2021/10/15 08:48:06;;;;;;;10.80;4.53;;;;;;;14.26;62.86;100193.88;5012520;28;20058;-61
2021/10/15 08:50:34;;;;;;;9.18;5.20;;;;;;;14.08;63.54;100205.28;5018388;28;20415;-61
2021/10/15 08:53:03;;;;;;;10.20;5.85;;;;;;;14.13;63.52;100204.22;5021804;28;20073;-61
2021/10/15 08:55:30;;;;;;;7.43;5.05;;;;;;;14.20;63.57;100208.13;5015438;28;20049;-62
2021/10/15 08:58:00;;;;;;;6.25;4.60;;;;;;;14.28;63.44;100217.59;5018942;28;20054;-62
2021/10/15 09:00:30;;;;;;;9.20;7.03;;;;;;;14.10;65.36;100222.56;5009358;28;20061;-62
2021/10/15 09:03:12;;;;;;;11.18;6.78;;;;;;;14.20;66.40;100230.53;5006456;28;20050;-62
2021/10/15 09:05:39;;;;;;;11.07;6.38;;;;;;;14.18;66.79;100238.44;5020580;28;20057;-62
2021/10/15 09:08:07;;;;;;;15.00;7.65;;;;;;;14.14;68.96;100236.69;5010453;28;20057;-61
2021/10/15 09:10:35;;;;;;;13.27;7.53;;;;;;;14.26;69.54;100244.31;5001261;28;20050;-63
2021/10/15 09:13:15;;;;;;;13.80;8.00;;;;;;;14.25;69.42;100240.69;5013302;28;20073;-62
2021/10/15 09:15:46;;;;;;;14.00;8.75;;;;;;;14.13;70.40;100258.28;5023972;28;20067;-63
2021/10/15 09:18:17;;;;;;;14.02;9.50;;;;;;;14.20;70.73;100272.53;5015791;28;20061;-62
2021/10/15 09:20:46;;;;;;;17.05;9.98;;;;;;;13.98;71.44;100273.75;5001622;28;20049;-62
2021/10/15 09:23:14;;;;;;;15.00;9.87;;;;;;;13.96;72.15;100272.41;5012312;28;20058;-62
2021/10/15 09:25:44;;;;;;;17.35;9.70;;;;;;;13.83;72.33;100282.75;5011495;28;20049;-63
2021/10/15 09:28:15;;;;;;;14.90;10.10;;;;;;;13.87;71.94;100294.91;5012020;28;20341;-62
2021/10/15 09:30:46;;;;;;;15.27;9.52;;;;;;;13.90;72.11;100305.44;5019843;28;20470;-62
2021/10/15 09:33:14;;;;;;;16.52;9.43;;;;;;;13.70;72.93;100309.84;5020415;28;20731;-63
2021/10/15 09:35:41;;;;;;;16.13;9.90;;;;;;;13.80;72.35;100315.03;5016665;28;20046;-62
2021/10/15 09:38:10;;;;;;;19.48;11.43;;;;;;;13.77;73.36;100318.53;5012251;28;20057;-63
2021/10/15 09:40:40;;;;;;;16.02;10.73;;;;;;;13.94;73.05;100323.19;5012600;28;20065;-62
2021/10/15 09:43:10;;;;;;;17.90;11.38;;;;;;;14.07;73.03;100321.28;5011882;28;20054;-62
2021/10/15 09:45:40;;;;;;;16.90;11.10;;;;;;;14.06;73.61;100325.22;5025420;28;20080;-62
2021/10/15 09:48:24;;;;;;;14.13;10.57;;;;;;;14.27;72.63;100332.81;5019981;28;20606;-62
2021/10/15 09:51:11;;;;;;;16.20;10.85;;;;;;;14.32;72.24;100329.78;5004453;28;20058;-62
2021/10/15 09:53:40;;;;;;;14.10;11.13;;;;;;;14.53;72.64;100335.34;5017629;28;20068;-62
2021/10/15 09:56:09;;;;;;;15.05;10.63;;;;;;;14.58;72.54;100338.00;5014757;28;20046;-62
2021/10/15 09:58:36;;;;;;;15.20;10.60;;;;;;;14.73;72.52;100333.72;5023324;28;20064;-62
2021/10/15 10:01:04;;;;;;;13.23;10.15;;;;;;;14.87;71.77;100331.41;5027122;28;20073;-62
2021/10/15 10:03:33;;;;;;;13.88;10.73;;;;;;;14.84;72.24;100337.72;5018419;28;20054;-62
2021/10/15 10:06:01;;;;;;;15.30;9.68;;;;;;;14.84;71.16;100342.50;5028169;28;20057;-62
2021/10/15 10:08:29;;;;;;;16.88;10.55;;;;;;;14.92;71.70;100345.22;5018025;28;20057;-62
2021/10/15 10:10:56;;;;;;;14.73;11.30;;;;;;;15.02;71.92;100350.38;5008278;28;20046;-62
2021/10/15 10:13:23;;;;;;;14.27;11.00;;;;;;;15.04;71.13;100346.41;5010708;28;20065;-62
2021/10/15 10:15:51;;;;;;;13.52;11.32;;;;;;;15.27;71.43;100339.19;5013822;28;20050;-62
2021/10/15 10:18:25;;;;;;;16.33;12.02;;;;;;;15.30;71.48;100341.28;5011590;28;20531;-62
2021/10/15 10:21:01;;;;;;;16.42;12.73;;;;;;;15.43;70.96;100342.94;5011156;28;20420;-62
2021/10/15 10:23:30;;;;;;;15.10;12.52;;;;;;;15.57;70.34;100347.38;5012227;28;20123;-62
2021/10/15 10:25:59;;;;;;;15.65;12.43;;;;;;;15.75;70.14;100342.38;5019083;28;20057;-63
2021/10/15 10:28:27;;;;;;;14.20;11.18;;;;;;;15.67;69.72;100346.09;5017131;28;20107;-61
2021/10/15 10:30:57;;;;;;;13.30;11.98;;;;;;;15.82;69.90;100360.25;5011530;28;20496;-62
2021/10/15 10:33:25;;;;;;;;;;;;;;;15.90;67.92;100357.69;5011655;28;20058;-63
2021/10/15 10:35:54;;;;;;;13.25;10.65;;;;;;;16.03;67.32;100360.13;5010903;28;19925;-63
2021/10/15 10:38:32;;;;;;;13.30;11.90;;;;;;;16.35;68.10;100351.81;5011092;28;20057;-62
2021/10/15 10:41:27;;;;;;;12.27;10.82;;;;;;;17.03;66.38;100350.97;5010607;28;20060;-62
2021/10/15 10:44:21;;;;;;;11.05;9.40;;;;;;;17.60;63.98;100362.84;5009186;28;20056;-62
2021/10/15 10:47:15;;;;;;;12.40;9.75;;;;;;;17.61;63.57;100374.94;4999140;28;20054;-62
2021/10/15 10:50:05;;;;;;;11.75;7.82;;;;;;;17.69;63.28;100382.38;5015996;28;20053;-60
2021/10/15 10:52:36;;;;;;;8.35;7.55;;;;;;;17.61;62.87;100375.75;5009541;28;20056;-63
2021/10/15 10:55:05;;;;;;;8.57;6.60;;;;;;;17.52;62.21;100382.75;5027941;28;20061;-62
2021/10/15 10:57:40;;;;;;;7.10;5.50;;;;;;;17.49;61.53;100389.94;5023569;28;20046;-62
2021/10/15 11:00:22;;;;;;;5.40;4.38;;;;;;;17.30;60.14;100387.81;5021602;28;20054;-63
2021/10/15 11:02:52;;;;;;;6.38;3.75;;;;;;;17.29;59.54;100389.03;5014466;28;20050;-62
2021/10/15 11:05:33;;;;;;;5.63;4.07;;;;;;;17.27;60.28;100394.19;5011887;28;20045;-62
2021/10/15 11:08:33;;;;;;;6.90;4.00;;;;;;;17.25;60.84;100396.56;5017420;28;20053;-62
2021/10/15 11:11:41;;;;;;;4.72;4.13;;;;;;;17.04;60.45;100399.59;5010509;28;20053;-63
2021/10/15 11:14:08;;;;;;;5.25;4.20;;;;;;;16.90;61.20;100400.03;5021446;28;20050;-63
2021/10/15 11:16:35;;;;;;;5.72;4.35;;;;;;;16.87;61.33;100397.94;5016098;28;20418;-62
2021/10/15 11:19:03;;;;;;;5.50;4.40;;;;;;;16.84;61.61;100410.72;5011725;28;20058;-63
2021/10/15 11:21:30;;;;;;;6.32;4.30;;;;;;;16.77;61.61;100413.28;5011192;28;20050;-63
2021/10/15 11:24:13;;;;;;;4.60;3.97;;;;;;;16.62;62.26;100420.50;5016854;28;20057;-63
2021/10/15 11:26:40;;;;;;;5.32;4.53;;;;;;;16.59;62.83;100415.59;4999050;28;20046;-64
2021/10/15 11:29:08;;;;;;;6.35;4.47;;;;;;;16.43;63.18;100434.38;5010739;28;20058;-62
2021/10/15 11:31:35;;;;;;;5.35;3.72;;;;;;;16.24;63.28;100430.22;5016487;28;20156;-62
2021/10/15 11:34:10;;;;;;;4.07;3.67;;;;;;;16.27;63.84;100427.88;5017182;28;20046;-63
2021/10/15 11:36:38;;;;;;;4.90;3.70;;;;;;;16.57;63.86;100428.38;5014731;28;20057;-63
2021/10/15 11:39:05;;;;;;;3.42;3.00;;;;;;;16.96;63.31;100428.72;5018849;28;20483;-63
2021/10/15 11:41:47;;;;;;;3.45;2.88;;;;;;;17.32;62.58;100436.13;5016120;28;20053;-63
2021/10/15 11:44:14;;;;;;;2.63;1.95;;;;;;;18.15;58.48;100436.25;5029009;28;20061;-62